createdAt,value
2017-10-25T00:00:21.212Z,0
2017-10-25T00:01:21.527Z,0
2017-10-25T00:02:21.524Z,0
2017-10-25T00:03:21.187Z,0
2017-10-25T00:04:21.515Z,0
2017-10-25T00:05:21.179Z,0
2017-10-25T00:06:21.492Z,0
2017-10-25T00:07:21.510Z,0
2017-10-25T00:08:21.478Z,0
2017-10-25T00:09:21.502Z,0
2017-10-25T00:10:21.471Z,0
2017-10-25T00:11:21.464Z,0
2017-10-25T00:12:21.458Z,0
2017-10-25T00:13:21.129Z,0
2017-10-25T00:14:21.448Z,0
2017-10-25T00:15:21.105Z,0
2017-10-25T00:16:21.447Z,0
2017-10-25T00:17:21.097Z,0
2017-10-25T00:18:21.429Z,0
2017-10-25T00:19:21.087Z,0
2017-10-25T00:20:21.403Z,0
2017-10-25T00:21:21.072Z,0
2017-10-25T00:22:20.750Z,0
2017-10-25T00:23:21.068Z,0
2017-10-25T00:24:21.381Z,0
2017-10-25T00:25:21.380Z,0
2017-10-25T00:26:21.357Z,0
2017-10-25T00:27:21.357Z,0
2017-10-25T00:28:21.024Z,0
2017-10-25T00:29:21.018Z,0
2017-10-25T00:30:21.336Z,0
2017-10-25T00:31:21.333Z,0
2017-10-25T00:32:21.324Z,0
2017-10-25T00:33:21.007Z,0
2017-10-25T00:34:21.313Z,0
2017-10-25T00:35:21.314Z,0
2017-10-25T00:36:21.295Z,0
2017-10-25T00:37:21.288Z,0
2017-10-25T00:38:21.287Z,0
2017-10-25T00:39:20.957Z,0
2017-10-25T00:40:21.271Z,0
2017-10-25T00:41:21.261Z,0
2017-10-25T00:42:21.258Z,0
2017-10-25T00:43:21.245Z,0
2017-10-25T00:44:20.595Z,0
2017-10-25T00:45:20.914Z,0
2017-10-25T00:46:21.486Z,0
2017-10-25T00:47:20.901Z,0
2017-10-25T00:48:20.571Z,0
2017-10-25T00:49:20.881Z,0
2017-10-25T00:50:20.879Z,0
2017-10-25T00:51:21.207Z,0
2017-10-25T00:52:21.180Z,0
2017-10-25T00:53:20.860Z,0
2017-10-25T00:54:21.172Z,0
2017-10-25T00:55:20.841Z,0
2017-10-25T00:56:21.168Z,0
2017-10-25T00:57:21.193Z,0
2017-10-25T00:58:21.158Z,0
2017-10-25T00:59:21.138Z,0
2017-10-25T01:00:21.135Z,0
2017-10-25T01:01:21.126Z,0
2017-10-25T01:02:21.120Z,0
2017-10-25T01:03:21.105Z,0
2017-10-25T01:04:21.106Z,0
2017-10-25T01:05:20.450Z,0
2017-10-25T01:06:20.769Z,0
2017-10-25T01:07:21.078Z,0
2017-10-25T01:08:20.752Z,0
2017-10-25T01:09:21.076Z,0
2017-10-25T01:10:20.733Z,0
2017-10-25T01:11:20.733Z,0
2017-10-25T01:12:21.047Z,0
2017-10-25T01:13:21.038Z,0
2017-10-25T01:14:21.032Z,0
2017-10-25T01:15:21.045Z,0
2017-10-25T01:16:20.699Z,0
2017-10-25T01:17:21.261Z,0
2017-10-25T01:18:21.004Z,0
2017-10-25T01:19:20.998Z,0
2017-10-25T01:20:21.002Z,0
2017-10-25T01:21:20.987Z,0
2017-10-25T01:22:20.985Z,0
2017-10-25T01:23:20.975Z,0
2017-10-25T01:24:20.969Z,0
2017-10-25T01:25:20.960Z,0
2017-10-25T01:26:20.622Z,0
2017-10-25T01:27:21.250Z,0
2017-10-25T01:28:20.612Z,0
2017-10-25T01:29:20.928Z,0
2017-10-25T01:30:20.926Z,0
2017-10-25T01:31:20.590Z,0
2017-10-25T01:32:20.916Z,0
2017-10-25T01:33:20.901Z,0
2017-10-25T01:34:20.892Z,0
2017-10-25T01:35:20.886Z,0
2017-10-25T01:36:20.556Z,0
2017-10-25T01:37:20.226Z,0
2017-10-25T01:38:20.866Z,0
2017-10-25T01:39:20.877Z,0
2017-10-25T01:40:20.852Z,0
2017-10-25T01:41:20.852Z,0
2017-10-25T01:42:20.843Z,0
2017-10-25T01:43:20.506Z,0
2017-10-25T01:44:20.828Z,0
2017-10-25T01:45:20.851Z,0
2017-10-25T01:46:20.809Z,0
2017-10-25T01:47:20.478Z,0
2017-10-25T01:48:21.062Z,0
2017-10-25T01:49:20.792Z,0
2017-10-25T01:50:20.790Z,0
2017-10-25T01:51:20.457Z,0
2017-10-25T01:52:20.778Z,0
2017-10-25T01:53:20.441Z,0
2017-10-25T01:54:20.753Z,0
2017-10-25T01:55:20.422Z,0
2017-10-25T01:56:20.754Z,0
2017-10-25T01:57:20.409Z,0
2017-10-25T01:58:20.724Z,0
2017-10-25T01:59:20.716Z,0
2017-10-25T02:00:20.716Z,0
2017-10-25T02:01:20.734Z,0
2017-10-25T02:02:20.704Z,0
2017-10-25T02:03:20.379Z,0
2017-10-25T02:04:20.694Z,0
2017-10-25T02:05:20.689Z,0
2017-10-25T02:06:20.677Z,0
2017-10-25T02:07:20.676Z,0
2017-10-25T02:08:20.664Z,0
2017-10-25T02:09:20.330Z,0
2017-10-25T02:10:20.643Z,0
2017-10-25T02:11:20.635Z,0
2017-10-25T02:12:20.637Z,0
2017-10-25T02:13:20.303Z,0
2017-10-25T02:14:20.294Z,0
2017-10-25T02:15:20.290Z,0
2017-10-25T02:16:19.955Z,0
2017-10-25T02:17:20.279Z,0
2017-10-25T02:18:19.941Z,0
2017-10-25T02:19:20.836Z,0
2017-10-25T02:20:20.574Z,0
2017-10-25T02:21:20.578Z,0
2017-10-25T02:22:20.569Z,0
2017-10-25T02:23:20.556Z,0
2017-10-25T02:24:20.222Z,0
2017-10-25T02:25:20.547Z,0
2017-10-25T02:26:20.541Z,0
2017-10-25T02:27:20.541Z,0
2017-10-25T02:28:20.519Z,0
2017-10-25T02:29:20.519Z,0
2017-10-25T02:30:20.524Z,0
2017-10-25T02:31:20.187Z,0
2017-10-25T02:32:20.516Z,0
2017-10-25T02:33:20.496Z,0
2017-10-25T02:34:20.489Z,0
2017-10-25T02:35:20.478Z,0
2017-10-25T02:36:20.475Z,0
2017-10-25T02:37:20.459Z,0
2017-10-25T02:38:20.468Z,0
2017-10-25T02:39:20.459Z,0
2017-10-25T02:40:20.439Z,0
2017-10-25T02:41:20.436Z,0
2017-10-25T02:42:20.427Z,0
2017-10-25T02:43:20.421Z,0
2017-10-25T02:44:20.094Z,0
2017-10-25T02:45:20.404Z,0
2017-10-25T02:46:20.420Z,0
2017-10-25T02:47:20.068Z,0
2017-10-25T02:48:20.390Z,0
2017-10-25T02:49:20.401Z,0
2017-10-25T02:50:20.624Z,0
2017-10-25T02:51:20.370Z,0
2017-10-25T02:52:20.359Z,0
2017-10-25T02:53:20.367Z,0
2017-10-25T02:54:20.026Z,0
2017-10-25T02:55:20.349Z,0
2017-10-25T02:56:20.330Z,0
2017-10-25T02:57:20.326Z,0
2017-10-25T02:58:19.999Z,0
2017-10-25T02:59:20.006Z,0
2017-10-25T03:00:20.307Z,0
2017-10-25T03:01:19.972Z,0
2017-10-25T03:02:20.290Z,0
2017-10-25T03:03:20.287Z,0
2017-10-25T03:04:20.276Z,0
2017-10-25T03:05:19.938Z,0
2017-10-25T03:06:19.938Z,0
2017-10-25T03:07:20.255Z,0
2017-10-25T03:08:19.281Z,0
2017-10-25T03:09:19.917Z,0
2017-10-25T03:10:20.240Z,0
2017-10-25T03:11:20.228Z,0
2017-10-25T03:12:20.228Z,0
2017-10-25T03:13:20.223Z,0
2017-10-25T03:14:20.210Z,0
2017-10-25T03:15:19.882Z,0
2017-10-25T03:16:20.195Z,0
2017-10-25T03:17:20.204Z,0
2017-10-25T03:18:20.193Z,0
2017-10-25T03:19:20.179Z,0
2017-10-25T03:20:20.180Z,0
2017-10-25T03:21:19.515Z,0
2017-10-25T03:22:20.160Z,0
2017-10-25T03:23:20.153Z,0
2017-10-25T03:24:20.143Z,0
2017-10-25T03:25:20.139Z,0
2017-10-25T03:26:20.128Z,0
2017-10-25T03:27:20.131Z,0
2017-10-25T03:28:20.132Z,0
2017-10-25T03:29:20.109Z,0
2017-10-25T03:30:20.110Z,0
2017-10-25T03:31:20.106Z,0
2017-10-25T03:32:20.087Z,0
2017-10-25T03:33:19.443Z,0
2017-10-25T03:34:20.078Z,0
2017-10-25T03:35:20.088Z,0
2017-10-25T03:36:20.060Z,0
2017-10-25T03:37:20.052Z,0
2017-10-25T03:38:19.722Z,0
2017-10-25T03:39:20.040Z,0
2017-10-25T03:40:20.034Z,0
2017-10-25T03:41:19.708Z,0
2017-10-25T03:42:20.021Z,0
2017-10-25T03:43:20.020Z,0
2017-10-25T03:44:20.004Z,0
2017-10-25T03:45:20.004Z,0
2017-10-25T03:46:19.998Z,0
2017-10-25T03:47:19.677Z,0
2017-10-25T03:48:19.662Z,0
2017-10-25T03:49:19.972Z,0
2017-10-25T03:50:19.968Z,0
2017-10-25T03:51:19.960Z,0
2017-10-25T03:52:19.964Z,0
2017-10-25T03:53:20.227Z,0
2017-10-25T03:54:19.938Z,0
2017-10-25T03:55:19.938Z,0
2017-10-25T03:56:19.597Z,0
2017-10-25T03:57:19.598Z,0
2017-10-25T03:58:19.584Z,0
2017-10-25T03:59:19.582Z,0
2017-10-25T04:00:19.581Z,0
2017-10-25T04:01:19.890Z,0
2017-10-25T04:02:19.893Z,0
2017-10-25T04:03:19.877Z,0
2017-10-25T04:04:19.871Z,0
2017-10-25T04:05:19.871Z,0
2017-10-25T04:06:19.533Z,0
2017-10-25T04:07:19.528Z,0
2017-10-25T04:08:19.530Z,0
2017-10-25T04:09:19.837Z,0
2017-10-25T04:10:19.511Z,0
2017-10-25T04:11:19.501Z,0
2017-10-25T04:12:19.822Z,0
2017-10-25T04:13:19.487Z,0
2017-10-25T04:14:19.808Z,0
2017-10-25T04:15:19.798Z,0
2017-10-25T04:16:19.466Z,0
2017-10-25T04:17:19.786Z,0
2017-10-25T04:18:19.777Z,0
2017-10-25T04:19:19.773Z,0
2017-10-25T04:20:19.771Z,0
2017-10-25T04:21:19.436Z,0
2017-10-25T04:22:19.756Z,0
2017-10-25T04:23:19.742Z,0
2017-10-25T04:24:19.992Z,0
2017-10-25T04:25:19.740Z,0
2017-10-25T04:26:19.725Z,0
2017-10-25T04:27:19.711Z,0
2017-10-25T04:28:19.739Z,0
2017-10-25T04:29:19.699Z,0
2017-10-25T04:30:19.712Z,0
2017-10-25T04:31:19.692Z,0
2017-10-25T04:32:19.683Z,0
2017-10-25T04:33:19.361Z,0
2017-10-25T04:34:19.668Z,0
2017-10-25T04:35:19.343Z,0
2017-10-25T04:36:19.338Z,0
2017-10-25T04:37:19.656Z,0
2017-10-25T04:38:19.652Z,0
2017-10-25T04:39:19.644Z,0
2017-10-25T04:40:19.639Z,0
2017-10-25T04:41:19.302Z,0
2017-10-25T04:42:19.336Z,0
2017-10-25T04:43:19.617Z,0
2017-10-25T04:44:19.613Z,0
2017-10-25T04:45:19.610Z,0
2017-10-25T04:46:19.288Z,0
2017-10-25T04:47:19.265Z,0
2017-10-25T04:48:19.583Z,0
2017-10-25T04:49:19.571Z,0
2017-10-25T04:50:19.569Z,0
2017-10-25T04:51:19.252Z,0
2017-10-25T04:52:19.240Z,0
2017-10-25T04:53:19.230Z,0
2017-10-25T04:54:19.540Z,0
2017-10-25T04:55:19.794Z,0
2017-10-25T04:56:19.530Z,0
2017-10-25T04:57:19.532Z,0
2017-10-25T04:58:19.521Z,0
2017-10-25T04:59:19.504Z,0
2017-10-25T05:00:19.508Z,0
2017-10-25T05:01:18.852Z,0
2017-10-25T05:02:19.199Z,0
2017-10-25T05:03:19.484Z,0
2017-10-25T05:04:19.156Z,0
2017-10-25T05:05:19.469Z,0
2017-10-25T05:06:19.152Z,0
2017-10-25T05:07:19.480Z,0
2017-10-25T05:08:19.132Z,0
2017-10-25T05:09:19.449Z,0
2017-10-25T05:10:19.449Z,0
2017-10-25T05:11:19.109Z,0
2017-10-25T05:12:19.448Z,0
2017-10-25T05:13:19.100Z,0
2017-10-25T05:14:19.423Z,0
2017-10-25T05:15:19.409Z,0
2017-10-25T05:16:19.410Z,0
2017-10-25T05:17:19.398Z,0
2017-10-25T05:18:19.393Z,0
2017-10-25T05:19:19.380Z,0
2017-10-25T05:20:19.383Z,0
2017-10-25T05:21:19.368Z,0
2017-10-25T05:22:19.369Z,0
2017-10-25T05:23:19.356Z,0
2017-10-25T05:24:19.351Z,0
2017-10-25T05:25:19.023Z,0
2017-10-25T05:26:19.268Z,0
2017-10-25T05:27:19.341Z,0
2017-10-25T05:28:19.008Z,4
2017-10-25T05:29:18.996Z,4
2017-10-25T05:30:19.311Z,4
2017-10-25T05:31:19.005Z,4
2017-10-25T05:32:19.303Z,4
2017-10-25T05:33:19.291Z,8
2017-10-25T05:34:19.291Z,4
2017-10-25T05:35:19.278Z,8
2017-10-25T05:36:18.956Z,8
2017-10-25T05:37:19.271Z,12
2017-10-25T05:38:18.945Z,16
2017-10-25T05:39:19.267Z,16
2017-10-25T05:40:19.252Z,16
2017-10-25T05:41:18.925Z,20
2017-10-25T05:42:19.240Z,20
2017-10-25T05:43:19.243Z,24
2017-10-25T05:44:19.224Z,28
2017-10-25T05:45:19.222Z,32
2017-10-25T05:46:19.210Z,32
2017-10-25T05:47:19.208Z,40
2017-10-25T05:48:19.206Z,48
2017-10-25T05:49:19.194Z,52
2017-10-25T05:50:18.880Z,56
2017-10-25T05:51:19.182Z,60
2017-10-25T05:52:19.172Z,56
2017-10-25T05:53:19.171Z,64
2017-10-25T05:54:18.843Z,72
2017-10-25T05:55:19.153Z,76
2017-10-25T05:56:19.153Z,100
2017-10-25T05:57:19.392Z,116
2017-10-25T05:58:19.150Z,120
2017-10-25T05:59:18.815Z,112
2017-10-25T06:00:19.121Z,116
2017-10-25T06:01:19.121Z,140
2017-10-25T06:02:19.111Z,176
2017-10-25T06:03:18.786Z,212
2017-10-25T06:04:18.454Z,252
2017-10-25T06:05:19.096Z,280
2017-10-25T06:06:19.088Z,276
2017-10-25T06:07:19.084Z,264
2017-10-25T06:08:18.760Z,276
2017-10-25T06:09:19.074Z,296
2017-10-25T06:10:19.066Z,316
2017-10-25T06:11:19.109Z,332
2017-10-25T06:12:18.726Z,344
2017-10-25T06:13:19.043Z,364
2017-10-25T06:14:19.039Z,428
2017-10-25T06:15:19.045Z,540
2017-10-25T06:16:18.710Z,572
2017-10-25T06:17:19.015Z,584
2017-10-25T06:18:18.693Z,480
2017-10-25T06:19:19.004Z,420
2017-10-25T06:20:18.681Z,424
2017-10-25T06:21:18.992Z,412
2017-10-25T06:22:18.672Z,404
2017-10-25T06:23:18.983Z,464
2017-10-25T06:24:18.650Z,592
2017-10-25T06:25:18.971Z,800
2017-10-25T06:26:18.957Z,948
2017-10-25T06:27:18.631Z,928
2017-10-25T06:28:18.954Z,680
2017-10-25T06:29:18.944Z,588
2017-10-25T06:30:18.939Z,604
2017-10-25T06:31:18.929Z,628
2017-10-25T06:32:18.608Z,672
2017-10-25T06:33:18.926Z,808
2017-10-25T06:34:18.267Z,960
2017-10-25T06:35:18.905Z,1096
2017-10-25T06:36:18.895Z,1136
2017-10-25T06:37:18.894Z,1068
2017-10-25T06:38:18.898Z,936
2017-10-25T06:39:18.890Z,920
2017-10-25T06:40:18.880Z,944
2017-10-25T06:41:18.875Z,888
2017-10-25T06:42:18.872Z,1124
2017-10-25T06:43:18.854Z,1392
2017-10-25T06:44:18.523Z,1804
2017-10-25T06:45:18.518Z,1808
2017-10-25T06:46:18.860Z,1548
2017-10-25T06:47:18.516Z,1192
2017-10-25T06:48:18.826Z,908
2017-10-25T06:49:18.822Z,952
2017-10-25T06:50:18.814Z,976
2017-10-25T06:51:18.485Z,884
2017-10-25T06:52:18.478Z,1424
2017-10-25T06:53:18.154Z,1664
2017-10-25T06:54:18.807Z,1824
2017-10-25T06:55:18.797Z,2792
2017-10-25T06:56:18.775Z,2952
2017-10-25T06:57:18.766Z,2340
2017-10-25T06:58:18.439Z,2108
2017-10-25T06:59:18.757Z,2080
2017-10-25T07:00:19.009Z,1816
2017-10-25T07:01:18.749Z,2048
2017-10-25T07:02:18.739Z,2004
2017-10-25T07:03:18.412Z,2184
2017-10-25T07:04:18.726Z,2172
2017-10-25T07:05:18.722Z,2564
2017-10-25T07:06:18.718Z,2664
2017-10-25T07:07:18.718Z,2852
2017-10-25T07:08:18.700Z,2816
2017-10-25T07:09:18.053Z,2860
2017-10-25T07:10:18.369Z,2856
2017-10-25T07:11:18.369Z,2960
2017-10-25T07:12:18.686Z,2920
2017-10-25T07:13:18.687Z,2772
2017-10-25T07:14:18.677Z,2504
2017-10-25T07:15:18.680Z,2528
2017-10-25T07:16:18.332Z,2596
2017-10-25T07:17:18.670Z,2776
2017-10-25T07:18:18.329Z,2852
2017-10-25T07:19:17.672Z,2816
2017-10-25T07:20:18.632Z,2864
2017-10-25T07:21:18.622Z,2684
2017-10-25T07:22:18.620Z,2532
2017-10-25T07:23:18.306Z,2440
2017-10-25T07:24:18.611Z,2528
2017-10-25T07:25:18.602Z,2796
2017-10-25T07:26:18.595Z,3172
2017-10-25T07:27:18.600Z,3540
2017-10-25T07:28:18.585Z,3980
2017-10-25T07:29:18.583Z,4492
2017-10-25T07:30:18.250Z,4908
2017-10-25T07:31:18.499Z,5124
2017-10-25T07:32:18.572Z,5272
2017-10-25T07:33:18.554Z,5216
2017-10-25T07:34:18.546Z,4964
2017-10-25T07:35:18.240Z,4788
2017-10-25T07:36:18.219Z,4704
2017-10-25T07:37:18.213Z,4632
2017-10-25T07:38:18.537Z,4560
2017-10-25T07:39:18.539Z,4344
2017-10-25T07:40:18.197Z,4120
2017-10-25T07:41:18.522Z,3912
2017-10-25T07:42:18.514Z,3780
2017-10-25T07:43:18.513Z,3924
2017-10-25T07:44:17.854Z,4084
2017-10-25T07:45:18.492Z,4176
2017-10-25T07:46:18.484Z,4296
2017-10-25T07:47:18.176Z,4408
2017-10-25T07:48:18.483Z,4628
2017-10-25T07:49:18.162Z,4916
2017-10-25T07:50:18.466Z,5316
2017-10-25T07:51:18.134Z,5728
2017-10-25T07:52:18.457Z,5924
2017-10-25T07:53:18.455Z,5948
2017-10-25T07:54:18.453Z,6048
2017-10-25T07:55:18.439Z,6292
2017-10-25T07:56:18.108Z,6780
2017-10-25T07:57:18.433Z,7088
2017-10-25T07:58:18.426Z,7196
2017-10-25T07:59:18.107Z,7136
2017-10-25T08:00:18.414Z,7252
2017-10-25T08:01:18.412Z,7472
2017-10-25T08:02:18.653Z,7572
2017-10-25T08:03:18.410Z,7580
2017-10-25T08:04:18.394Z,7772
2017-10-25T08:05:18.387Z,8156
2017-10-25T08:06:18.390Z,8384
2017-10-25T08:07:18.401Z,8440
2017-10-25T08:08:18.376Z,8420
2017-10-25T08:09:18.377Z,8496
2017-10-25T08:10:18.370Z,8656
2017-10-25T08:11:18.365Z,8844
2017-10-25T08:12:18.358Z,9032
2017-10-25T08:13:18.030Z,9204
2017-10-25T08:14:18.357Z,9412
2017-10-25T08:15:18.020Z,9588
2017-10-25T08:16:18.337Z,9888
2017-10-25T08:17:18.349Z,10260
2017-10-25T08:18:18.020Z,10576
2017-10-25T08:19:18.326Z,10716
2017-10-25T08:20:17.994Z,10776
2017-10-25T08:21:17.998Z,10692
2017-10-25T08:22:18.663Z,10376
2017-10-25T08:23:17.339Z,10116
2017-10-25T08:24:18.314Z,10000
2017-10-25T08:25:18.304Z,10048
2017-10-25T08:26:18.312Z,10272
2017-10-25T08:27:17.971Z,10468
2017-10-25T08:28:17.964Z,10588
2017-10-25T08:29:17.959Z,10496
2017-10-25T08:30:17.958Z,10400
2017-10-25T08:31:18.278Z,10384
2017-10-25T08:32:18.274Z,10376
2017-10-25T08:33:18.523Z,10336
2017-10-25T08:34:17.971Z,10272
2017-10-25T08:35:18.008Z,10192
2017-10-25T08:36:17.948Z,10148
2017-10-25T08:37:18.694Z,10104
2017-10-25T08:38:18.338Z,10048
2017-10-25T08:39:17.964Z,9944
2017-10-25T08:40:18.292Z,9992
2017-10-25T08:41:18.248Z,9984
2017-10-25T08:42:17.930Z,9896
2017-10-25T08:43:18.268Z,9764
2017-10-25T08:44:18.277Z,9804
2017-10-25T08:45:17.910Z,9992
2017-10-25T08:46:18.221Z,10164
2017-10-25T08:47:18.221Z,10148
2017-10-25T08:48:18.216Z,9700
2017-10-25T08:49:18.219Z,9920
2017-10-25T08:50:18.216Z,9900
2017-10-25T08:51:18.208Z,9688
2017-10-25T08:52:18.207Z,9704
2017-10-25T08:53:17.877Z,9840
2017-10-25T08:54:17.871Z,10096
2017-10-25T08:55:17.877Z,10404
2017-10-25T08:56:18.192Z,10580
2017-10-25T08:57:18.185Z,10908
2017-10-25T08:58:18.181Z,11168
2017-10-25T08:59:18.179Z,11320
2017-10-25T09:00:18.173Z,11384
2017-10-25T09:01:18.172Z,11500
2017-10-25T09:02:17.528Z,11716
2017-10-25T09:03:17.842Z,11844
2017-10-25T09:04:18.417Z,11876
2017-10-25T09:05:17.838Z,11768
2017-10-25T09:06:17.841Z,11588
2017-10-25T09:07:17.830Z,11172
2017-10-25T09:08:18.160Z,10856
2017-10-25T09:09:17.842Z,10468
2017-10-25T09:10:17.824Z,10124
2017-10-25T09:11:17.822Z,9892
2017-10-25T09:12:17.817Z,10108
2017-10-25T09:13:18.148Z,10640
2017-10-25T09:14:18.139Z,11028
2017-10-25T09:15:17.804Z,11164
2017-10-25T09:16:18.128Z,11176
2017-10-25T09:17:18.120Z,11232
2017-10-25T09:18:17.800Z,11340
2017-10-25T09:19:18.115Z,11256
2017-10-25T09:20:17.797Z,11320
2017-10-25T09:21:18.115Z,11116
2017-10-25T09:22:18.119Z,10836
2017-10-25T09:23:17.789Z,10496
2017-10-25T09:24:17.784Z,10168
2017-10-25T09:25:18.104Z,9980
2017-10-25T09:26:18.101Z,10192
2017-10-25T09:27:18.095Z,10732
2017-10-25T09:28:18.097Z,11256
2017-10-25T09:29:17.767Z,11496
2017-10-25T09:30:17.445Z,11668
2017-10-25T09:31:18.094Z,11636
2017-10-25T09:32:17.759Z,11372
2017-10-25T09:33:17.762Z,10076
2017-10-25T09:34:18.091Z,9200
2017-10-25T09:35:18.076Z,9696
2017-10-25T09:36:18.075Z,9872
2017-10-25T09:37:18.068Z,9784
2017-10-25T09:38:18.064Z,9484
2017-10-25T09:39:17.421Z,9076
2017-10-25T09:40:18.059Z,8800
2017-10-25T09:41:18.064Z,8640
2017-10-25T09:42:18.076Z,8600
2017-10-25T09:43:18.071Z,8828
2017-10-25T09:44:17.731Z,8904
2017-10-25T09:45:18.054Z,9332
2017-10-25T09:46:17.403Z,9792
2017-10-25T09:47:18.054Z,10276
2017-10-25T09:48:18.044Z,10536
2017-10-25T09:49:18.034Z,10720
2017-10-25T09:50:17.713Z,10836
2017-10-25T09:51:17.385Z,11052
2017-10-25T09:52:18.027Z,10540
2017-10-25T09:53:18.032Z,10492
2017-10-25T09:54:18.025Z,10672
2017-10-25T09:55:17.705Z,10524
2017-10-25T09:56:17.372Z,10528
2017-10-25T09:57:17.701Z,10752
2017-10-25T09:58:17.689Z,11668
2017-10-25T09:59:18.014Z,12188
2017-10-25T10:00:17.689Z,11860
2017-10-25T10:01:17.749Z,12360
2017-10-25T10:02:18.010Z,12596
2017-10-25T10:03:18.003Z,12388
2017-10-25T10:04:17.997Z,11680
2017-10-25T10:05:18.000Z,11872
2017-10-25T10:06:17.999Z,12328
2017-10-25T10:07:17.995Z,12872
2017-10-25T10:08:17.344Z,13388
2017-10-25T10:09:17.667Z,13716
2017-10-25T10:10:17.658Z,14340
2017-10-25T10:11:17.654Z,14824
2017-10-25T10:12:17.977Z,14576
2017-10-25T10:13:17.656Z,13440
2017-10-25T10:14:17.973Z,12592
2017-10-25T10:15:17.646Z,13004
2017-10-25T10:16:17.981Z,12748
2017-10-25T10:17:17.656Z,11656
2017-10-25T10:18:17.643Z,10376
2017-10-25T10:19:17.960Z,10288
2017-10-25T10:20:17.650Z,11112
2017-10-25T10:21:17.638Z,11900
2017-10-25T10:22:17.964Z,12492
2017-10-25T10:23:17.955Z,12784
2017-10-25T10:24:17.956Z,12736
2017-10-25T10:25:17.965Z,13460
2017-10-25T10:26:17.958Z,13220
2017-10-25T10:27:17.967Z,13124
2017-10-25T10:28:17.627Z,12256
2017-10-25T10:29:17.632Z,11148
2017-10-25T10:30:17.949Z,10776
2017-10-25T10:31:17.948Z,11648
2017-10-25T10:32:17.945Z,12288
2017-10-25T10:33:17.947Z,11508
2017-10-25T10:34:17.624Z,10776
2017-10-25T10:35:17.940Z,10664
2017-10-25T10:36:17.943Z,9772
2017-10-25T10:37:17.935Z,9660
2017-10-25T10:38:17.612Z,10780
2017-10-25T10:39:17.936Z,13572
2017-10-25T10:40:17.293Z,12676
2017-10-25T10:41:17.605Z,11424
2017-10-25T10:42:17.928Z,12252
2017-10-25T10:43:17.609Z,11144
2017-10-25T10:44:17.282Z,11084
2017-10-25T10:45:17.925Z,11856
2017-10-25T10:46:17.276Z,11692
2017-10-25T10:47:17.928Z,11884
2017-10-25T10:48:17.600Z,10968
2017-10-25T10:49:17.600Z,9732
2017-10-25T10:50:17.921Z,9080
2017-10-25T10:51:17.920Z,9032
2017-10-25T10:52:17.921Z,9616
2017-10-25T10:53:17.590Z,10328
2017-10-25T10:54:17.912Z,10864
2017-10-25T10:55:17.922Z,10820
2017-10-25T10:56:17.270Z,10788
2017-10-25T10:57:17.913Z,10360
2017-10-25T10:58:17.584Z,10340
2017-10-25T10:59:17.577Z,10568
2017-10-25T11:00:17.617Z,10368
2017-10-25T11:01:17.580Z,10292
2017-10-25T11:02:17.934Z,10204
2017-10-25T11:03:17.913Z,10196
2017-10-25T11:04:17.899Z,10000
2017-10-25T11:05:17.574Z,9708
2017-10-25T11:06:17.569Z,9964
2017-10-25T11:07:17.896Z,10200
2017-10-25T11:08:17.570Z,10264
2017-10-25T11:09:17.883Z,10548
2017-10-25T11:10:17.886Z,10864
2017-10-25T11:11:17.894Z,11092
2017-10-25T11:12:17.246Z,11444
2017-10-25T11:13:17.880Z,11668
2017-10-25T11:14:17.564Z,11808
2017-10-25T11:15:17.557Z,11956
2017-10-25T11:16:17.552Z,12032
2017-10-25T11:17:17.881Z,12036
2017-10-25T11:18:17.870Z,11832
2017-10-25T11:19:17.875Z,11104
2017-10-25T11:20:17.880Z,11076
2017-10-25T11:21:17.875Z,11624
2017-10-25T11:22:17.891Z,11608
2017-10-25T11:23:17.543Z,10848
2017-10-25T11:24:17.863Z,10200
2017-10-25T11:25:17.862Z,9400
2017-10-25T11:26:17.858Z,8624
2017-10-25T11:27:17.867Z,8172
2017-10-25T11:28:17.540Z,7844
2017-10-25T11:29:17.862Z,7864
2017-10-25T11:30:17.546Z,7484
2017-10-25T11:31:17.853Z,7204
2017-10-25T11:32:17.856Z,7344
2017-10-25T11:33:17.525Z,6768
2017-10-25T11:34:17.879Z,6168
2017-10-25T11:35:17.851Z,5880
2017-10-25T11:36:17.851Z,5768
2017-10-25T11:37:17.844Z,5896
2017-10-25T11:38:18.056Z,5472
2017-10-25T11:39:17.849Z,5548
2017-10-25T11:40:17.837Z,5640
2017-10-25T11:41:17.531Z,6244
2017-10-25T11:42:17.835Z,7024
2017-10-25T11:43:17.189Z,7592
2017-10-25T11:44:17.829Z,8604
2017-10-25T11:45:17.509Z,7216
2017-10-25T11:46:17.503Z,6436
2017-10-25T11:47:17.836Z,7292
2017-10-25T11:48:17.496Z,8176
2017-10-25T11:49:17.829Z,6852
2017-10-25T11:50:17.836Z,7156
2017-10-25T11:51:17.820Z,8580
2017-10-25T11:52:17.817Z,7884
2017-10-25T11:53:17.490Z,9432
2017-10-25T11:54:17.485Z,8876
2017-10-25T11:55:18.061Z,9048
2017-10-25T11:56:17.484Z,8048
2017-10-25T11:57:17.478Z,8136
2017-10-25T11:58:17.796Z,6612
2017-10-25T11:59:17.476Z,6104
2017-10-25T12:00:17.793Z,5696
2017-10-25T12:01:17.147Z,5736
2017-10-25T12:02:17.790Z,6280
2017-10-25T12:03:17.792Z,8044
2017-10-25T12:04:17.784Z,9020
2017-10-25T12:05:17.461Z,8300
2017-10-25T12:06:17.470Z,8316
2017-10-25T12:07:17.458Z,9212
2017-10-25T12:08:17.774Z,8968
2017-10-25T12:09:17.772Z,8684
2017-10-25T12:10:17.772Z,9720
2017-10-25T12:11:17.767Z,10112
2017-10-25T12:12:17.449Z,9932
2017-10-25T12:13:17.120Z,9568
2017-10-25T12:14:17.454Z,9892
2017-10-25T12:15:17.766Z,9352
2017-10-25T12:16:17.457Z,9236
2017-10-25T12:17:17.116Z,9400
2017-10-25T12:18:17.757Z,8652
2017-10-25T12:19:17.765Z,7220
2017-10-25T12:20:17.755Z,6320
2017-10-25T12:21:17.431Z,5620
2017-10-25T12:22:17.432Z,4940
2017-10-25T12:23:17.107Z,4424
2017-10-25T12:24:17.429Z,5136
2017-10-25T12:25:17.747Z,4580
2017-10-25T12:26:17.995Z,3924
2017-10-25T12:27:17.737Z,3904
2017-10-25T12:28:17.746Z,3792
2017-10-25T12:29:17.936Z,3328
2017-10-25T12:30:17.744Z,4504
2017-10-25T12:31:17.729Z,6008
2017-10-25T12:32:17.729Z,6336
2017-10-25T12:33:17.728Z,6064
2017-10-25T12:34:17.727Z,5416
2017-10-25T12:35:17.724Z,5812
2017-10-25T12:36:17.716Z,6772
2017-10-25T12:37:17.392Z,6532
2017-10-25T12:38:17.723Z,6164
2017-10-25T12:39:17.724Z,5880
2017-10-25T12:40:17.712Z,5756
2017-10-25T12:41:17.068Z,6132
2017-10-25T12:42:17.716Z,5888
2017-10-25T12:43:17.703Z,5176
2017-10-25T12:44:17.697Z,3420
2017-10-25T12:45:17.428Z,2448
2017-10-25T12:46:17.697Z,2588
2017-10-25T12:47:17.371Z,2712
2017-10-25T12:48:17.707Z,2452
2017-10-25T12:49:17.688Z,2128
2017-10-25T12:50:17.365Z,2204
2017-10-25T12:51:17.687Z,3572
2017-10-25T12:52:17.034Z,5748
2017-10-25T12:53:17.034Z,6336
2017-10-25T12:54:17.355Z,5628
2017-10-25T12:55:17.689Z,6144
2017-10-25T12:56:17.346Z,6484
2017-10-25T12:57:17.273Z,7556
2017-10-25T12:58:17.343Z,8416
2017-10-25T12:59:17.351Z,6736
2017-10-25T13:00:17.666Z,5508
2017-10-25T13:01:17.659Z,5432
2017-10-25T13:02:17.342Z,5572
2017-10-25T13:03:17.663Z,7064
2017-10-25T13:04:17.654Z,7272
2017-10-25T13:05:17.661Z,6596
2017-10-25T13:06:17.645Z,6464
2017-10-25T13:07:17.655Z,6280
2017-10-25T13:08:16.674Z,6020
2017-10-25T13:09:17.318Z,6316
2017-10-25T13:10:17.315Z,9332
2017-10-25T13:11:17.313Z,9728
2017-10-25T13:12:17.311Z,6252
2017-10-25T13:13:17.306Z,4908
2017-10-25T13:14:17.629Z,4832
2017-10-25T13:15:17.830Z,5316
2017-10-25T13:16:17.620Z,5728
2017-10-25T13:17:17.625Z,6060
2017-10-25T13:18:17.613Z,5940
2017-10-25T13:19:17.304Z,5968
2017-10-25T13:20:17.620Z,6812
2017-10-25T13:21:17.284Z,7540
2017-10-25T13:22:17.608Z,6572
2017-10-25T13:23:17.283Z,6148
2017-10-25T13:24:17.277Z,6488
2017-10-25T13:25:17.602Z,6832
2017-10-25T13:26:17.279Z,6788
2017-10-25T13:27:17.599Z,6608
2017-10-25T13:28:17.594Z,6116
2017-10-25T13:29:17.594Z,5536
2017-10-25T13:30:17.586Z,5244
2017-10-25T13:31:17.268Z,5648
2017-10-25T13:32:17.579Z,6108
2017-10-25T13:33:17.799Z,5768
2017-10-25T13:34:17.594Z,5992
2017-10-25T13:35:17.577Z,6204
2017-10-25T13:36:17.251Z,5912
2017-10-25T13:37:17.570Z,5588
2017-10-25T13:38:17.587Z,5740
2017-10-25T13:39:17.563Z,5788
2017-10-25T13:40:17.234Z,5776
2017-10-25T13:41:17.563Z,6104
2017-10-25T13:42:16.910Z,6060
2017-10-25T13:43:17.232Z,5652
2017-10-25T13:44:17.555Z,5272
2017-10-25T13:45:17.547Z,5248
2017-10-25T13:46:17.540Z,4836
2017-10-25T13:47:17.544Z,4728
2017-10-25T13:48:17.553Z,5000
2017-10-25T13:49:17.556Z,4912